createdAt,value
2022-12-06T00:01:25.951Z,100480.28
2022-12-06T00:03:55.487Z,100478.28
2022-12-06T00:06:25.639Z,100477.81
2022-12-06T00:08:53.755Z,100479.94
2022-12-06T00:11:22.500Z,100474.81
2022-12-06T00:13:55.634Z,100478.47
2022-12-06T00:16:24.679Z,100484.03
2022-12-06T00:18:52.980Z,100478.53
2022-12-06T00:21:22.595Z,100476.19
2022-12-06T00:23:52.132Z,100479.78
2022-12-06T00:26:20.602Z,100481.81
2022-12-06T00:28:48.526Z,100482.81
2022-12-06T00:31:20.052Z,100487.53
2022-12-06T00:33:47.685Z,100480.72
2022-12-06T00:36:16.906Z,100482.31
2022-12-06T00:38:44.723Z,100481.81
2022-12-06T00:41:14.177Z,100484.69
2022-12-06T00:43:41.825Z,100483.16
2022-12-06T00:46:13.156Z,100472.41
2022-12-06T00:48:42.291Z,100470.56
2022-12-06T00:51:10.105Z,100470.34
2022-12-06T00:53:37.745Z,100470.63
2022-12-06T00:56:05.856Z,100474.31
2022-12-06T00:58:33.760Z,100475.41
2022-12-06T01:01:09.382Z,100468.13
2022-12-06T01:03:37.110Z,100477.72
2022-12-06T01:06:07.343Z,100474.59
2022-12-06T01:08:35.645Z,100472.69
2022-12-06T01:11:03.843Z,100479.56
2022-12-06T01:13:31.623Z,100477.47
2022-12-06T01:16:05.620Z,100478.78
2022-12-06T01:18:33.108Z,100464.78
2022-12-06T01:21:06.424Z,100460.31
2022-12-06T01:23:33.985Z,100466.94
2022-12-06T01:26:01.675Z,100458.03
2022-12-06T01:28:29.352Z,100447.03
2022-12-06T01:30:56.879Z,100442.41
2022-12-06T01:33:28.079Z,100436.88
2022-12-06T01:35:55.559Z,100433.72
2022-12-06T01:38:24.392Z,100437.44
2022-12-06T01:40:52.133Z,100431.44
2022-12-06T01:43:37.349Z,100430.97
2022-12-06T01:46:13.988Z,100426.38
2022-12-06T01:48:42.456Z,100430.88
2022-12-06T01:51:12.943Z,100425.38
2022-12-06T01:53:45.017Z,100423.63
2022-12-06T01:56:12.756Z,100417.47
2022-12-06T01:58:42.382Z,100414.38
2022-12-06T02:01:11.343Z,100414.31
2022-12-06T02:03:39.332Z,100408.53
2022-12-06T02:06:09.407Z,100404.75
2022-12-06T02:08:38.112Z,100398.41
2022-12-06T02:11:07.218Z,100389.28
2022-12-06T02:13:36.326Z,100393.88
2022-12-06T02:16:16.490Z,100388.72
2022-12-06T02:18:50.844Z,100387.19
2022-12-06T02:21:27.969Z,100382.81
2022-12-06T02:24:36.266Z,100381.38
2022-12-06T02:27:22.034Z,100378.84
2022-12-06T02:30:08.449Z,100371.88
2022-12-06T02:32:49.221Z,100375.31
2022-12-06T02:35:28.518Z,100377.69
2022-12-06T02:38:06.648Z,100380.88
2022-12-06T02:40:39.443Z,100374.25
2022-12-06T02:43:10.705Z,100375.38
2022-12-06T02:45:43.974Z,100372.19
2022-12-06T02:48:15.352Z,100363.53
2022-12-06T02:50:47.544Z,100368.16
2022-12-06T02:53:18.529Z,100357.28
2022-12-06T02:55:47.431Z,100361.66
2022-12-06T02:58:14.894Z,100348.31
2022-12-06T03:00:44.587Z,100349.09
2022-12-06T03:03:25.441Z,100353.19
2022-12-06T03:06:34.422Z,100353.53
2022-12-06T03:09:10.587Z,100353.47
2022-12-06T03:11:51.293Z,100350.00
2022-12-06T03:14:22.319Z,100361.53
2022-12-06T03:16:55.255Z,100352.75
2022-12-06T03:19:26.578Z,100359.66
2022-12-06T03:21:59.867Z,100354.34
2022-12-06T03:24:29.483Z,100344.63
2022-12-06T03:27:00.712Z,100351.03
2022-12-06T03:29:31.693Z,100349.44
2022-12-06T03:32:02.996Z,100350.31
2022-12-06T03:34:37.331Z,100347.38
2022-12-06T03:37:07.279Z,100352.59
2022-12-06T03:39:39.875Z,100353.25
2022-12-06T03:42:08.318Z,100345.13
2022-12-06T03:44:36.461Z,100339.72
2022-12-06T03:47:08.365Z,100339.81
2022-12-06T03:49:42.989Z,100332.31
2022-12-06T03:52:10.927Z,100332.72
2022-12-06T03:54:39.797Z,100331.38
2022-12-06T03:57:07.537Z,100333.19
2022-12-06T03:59:35.052Z,100322.56
2022-12-06T04:02:02.574Z,100327.16
2022-12-06T04:04:30.147Z,100331.97
2022-12-06T04:06:58.955Z,100334.34
2022-12-06T04:09:43.923Z,100322.78
2022-12-06T04:12:25.384Z,100329.41
2022-12-06T04:14:52.854Z,100329.47
2022-12-06T04:17:37.945Z,100324.41
2022-12-06T04:20:06.728Z,100326.56
2022-12-06T04:22:53.377Z,100330.19
2022-12-06T04:25:20.978Z,100324.19
2022-12-06T04:28:02.396Z,100316.00
2022-12-06T04:30:47.300Z,100317.97
2022-12-06T04:33:32.526Z,100319.53
2022-12-06T04:36:17.389Z,100319.53
2022-12-06T04:38:46.195Z,100319.69
2022-12-06T04:41:35.146Z,100317.09
2022-12-06T04:44:01.682Z,100317.44
2022-12-06T04:46:29.269Z,100318.38
2022-12-06T04:48:56.895Z,100311.00
2022-12-06T04:51:25.262Z,100306.47
2022-12-06T04:53:54.186Z,100308.81
2022-12-06T04:56:22.006Z,100316.53
2022-12-06T04:58:49.500Z,100307.03
2022-12-06T05:01:17.041Z,100311.06
2022-12-06T05:03:44.738Z,100312.31
2022-12-06T05:06:12.527Z,100309.97
2022-12-06T05:08:40.094Z,100307.81
2022-12-06T05:11:08.988Z,100314.16
2022-12-06T05:13:36.864Z,100304.59
2022-12-06T05:16:06.695Z,100301.25
2022-12-06T05:18:35.106Z,100297.00
2022-12-06T05:21:04.125Z,100298.69
2022-12-06T05:23:31.586Z,100306.63
2022-12-06T05:26:00.283Z,100305.59
2022-12-06T05:28:29.927Z,100305.25
2022-12-06T05:30:57.645Z,100304.25
2022-12-06T05:33:25.992Z,100303.59
2022-12-06T05:35:53.759Z,100305.19
2022-12-06T05:38:21.505Z,100300.94
2022-12-06T05:40:49.011Z,100302.31
2022-12-06T05:43:17.331Z,100302.06
2022-12-06T05:45:46.165Z,100306.47
2022-12-06T05:48:13.662Z,100299.56
2022-12-06T05:50:41.142Z,100303.03
2022-12-06T05:53:08.627Z,100306.31
2022-12-06T05:55:36.121Z,100293.38
2022-12-06T05:58:03.593Z,100294.41
2022-12-06T06:00:31.088Z,100294.78
2022-12-06T06:03:00.065Z,100303.97
2022-12-06T06:05:27.710Z,100298.97
2022-12-06T06:07:55.579Z,100299.41
2022-12-06T06:10:23.219Z,100296.06
2022-12-06T06:12:50.868Z,100299.66
2022-12-06T06:15:18.891Z,100293.81
2022-12-06T06:17:46.228Z,100296.03
2022-12-06T06:20:15.218Z,100296.00
2022-12-06T06:22:43.233Z,100297.13
2022-12-06T06:25:11.238Z,100292.75
2022-12-06T06:27:38.946Z,100294.25
2022-12-06T06:30:08.739Z,100300.44
2022-12-06T06:32:36.411Z,100297.91
2022-12-06T06:35:05.210Z,100300.31
2022-12-06T06:37:34.418Z,100301.84
2022-12-06T06:40:02.644Z,100296.41
2022-12-06T06:42:30.460Z,100296.28
2022-12-06T06:44:57.953Z,100301.59
2022-12-06T06:47:25.423Z,100303.81
2022-12-06T06:49:52.892Z,100303.31
2022-12-06T06:52:20.605Z,100309.28
2022-12-06T06:54:49.442Z,100310.19
2022-12-06T06:57:18.300Z,100308.19
2022-12-06T06:59:45.819Z,100305.97
2022-12-06T07:02:14.122Z,100304.03
2022-12-06T07:04:42.324Z,100304.88
2022-12-06T07:07:10.039Z,100305.03
2022-12-06T07:09:37.788Z,100297.00
2022-12-06T07:12:07.086Z,100296.31
2022-12-06T07:14:34.828Z,100300.28
2022-12-06T07:17:02.543Z,100310.50
2022-12-06T07:19:30.107Z,100307.91
2022-12-06T07:21:57.588Z,100308.72
2022-12-06T07:24:25.106Z,100305.47
2022-12-06T07:26:52.568Z,100309.84
2022-12-06T07:29:21.393Z,100304.69
2022-12-06T07:31:49.819Z,100304.81
2022-12-06T07:34:17.435Z,100309.56
2022-12-06T07:36:44.929Z,100315.75
2022-12-06T07:39:15.007Z,100317.09
2022-12-06T07:42:00.607Z,100318.38
2022-12-06T07:44:47.400Z,100316.09
2022-12-06T07:47:14.926Z,100314.13
2022-12-06T07:49:42.502Z,100318.81
2022-12-06T07:52:09.991Z,100308.88
2022-12-06T07:54:37.505Z,100302.94
2022-12-06T07:57:05.016Z,100308.59
2022-12-06T07:59:34.931Z,100306.00
2022-12-06T08:02:02.533Z,100310.78
2022-12-06T08:04:30.302Z,100311.22
2022-12-06T08:06:57.808Z,100301.44
2022-12-06T08:09:25.369Z,100311.22
2022-12-06T08:11:52.882Z,100304.03
2022-12-06T08:14:20.373Z,100304.72
2022-12-06T08:16:49.217Z,100308.53
2022-12-06T08:19:16.843Z,100305.03
2022-12-06T08:21:45.524Z,100312.84
2022-12-06T08:24:13.542Z,100307.97
2022-12-06T08:26:40.921Z,100305.84
2022-12-06T08:29:08.471Z,100302.50
2022-12-06T08:31:36.162Z,100302.81
2022-12-06T08:34:05.727Z,100301.72
2022-12-06T08:36:34.195Z,100304.16
2022-12-06T08:39:02.011Z,100306.47
2022-12-06T08:41:47.008Z,100299.88
2022-12-06T08:44:16.231Z,100300.78
2022-12-06T08:46:44.152Z,100299.41
2022-12-06T08:49:14.273Z,100307.75
2022-12-06T08:51:41.967Z,100308.63
2022-12-06T08:54:10.721Z,100302.81
2022-12-06T08:56:38.360Z,100306.06
2022-12-06T08:59:06.134Z,100303.44
2022-12-06T09:01:38.222Z,100305.47
2022-12-06T09:04:08.160Z,100301.84
2022-12-06T09:06:38.686Z,100302.59
2022-12-06T09:09:06.530Z,100302.53
2022-12-06T09:11:34.042Z,100298.72
2022-12-06T09:14:01.544Z,100302.06
2022-12-06T09:16:29.205Z,100302.44
2022-12-06T09:18:56.751Z,100303.88
2022-12-06T09:21:25.950Z,100297.13
2022-12-06T09:23:57.759Z,100300.53
2022-12-06T09:26:25.993Z,100294.09
2022-12-06T09:28:55.697Z,100300.44
2022-12-06T09:31:23.290Z,100291.94
2022-12-06T09:33:51.171Z,100292.03
2022-12-06T09:36:22.184Z,100291.88
2022-12-06T09:38:54.573Z,100290.09
2022-12-06T09:41:40.319Z,100291.00
2022-12-06T09:44:25.362Z,100281.84
2022-12-06T09:47:04.071Z,100280.00
2022-12-06T09:49:33.256Z,100275.13
2022-12-06T09:52:25.436Z,100270.38
2022-12-06T09:55:07.365Z,100268.31
2022-12-06T09:57:43.550Z,100266.97
2022-12-06T10:00:20.610Z,100263.00
2022-12-06T10:03:19.426Z,100256.22
2022-12-06T10:06:02.698Z,100248.28
2022-12-06T10:08:53.059Z,100250.50
2022-12-06T10:11:32.232Z,100254.34
2022-12-06T10:14:13.689Z,100258.31
2022-12-06T10:16:54.597Z,100249.53
2022-12-06T10:19:34.627Z,100245.34
2022-12-06T10:22:12.392Z,100248.88
2022-12-06T10:24:49.916Z,100249.19
2022-12-06T10:27:23.928Z,100247.06
2022-12-06T10:29:57.604Z,100245.94
2022-12-06T10:32:41.553Z,100236.19
2022-12-06T10:35:19.202Z,100236.75
2022-12-06T10:37:57.014Z,100238.78
2022-12-06T10:40:33.121Z,100233.97
2022-12-06T10:43:11.203Z,100234.66
2022-12-06T10:46:08.502Z,100233.81
2022-12-06T10:48:42.443Z,100231.75
2022-12-06T10:51:15.226Z,100226.78
2022-12-06T10:53:49.308Z,100225.59
2022-12-06T10:56:21.301Z,100224.66
2022-12-06T10:58:55.036Z,100219.09
2022-12-06T11:01:28.162Z,100233.97
2022-12-06T11:04:01.171Z,100218.88
2022-12-06T11:06:33.029Z,100222.97
2022-12-06T11:09:05.694Z,100225.94
2022-12-06T11:11:36.344Z,100227.97
2022-12-06T11:14:07.978Z,100214.56
2022-12-06T11:16:40.907Z,100219.38
2022-12-06T11:19:21.385Z,100221.19
2022-12-06T11:21:57.461Z,100222.47
2022-12-06T11:24:31.720Z,100220.09
2022-12-06T11:27:04.693Z,100219.28
2022-12-06T11:29:32.616Z,100221.00
2022-12-06T11:32:03.965Z,100215.97
2022-12-06T11:34:36.792Z,100217.09
2022-12-06T11:37:06.526Z,100224.06
2022-12-06T11:39:34.889Z,100214.81
2022-12-06T11:42:05.502Z,100216.31
2022-12-06T11:44:46.289Z,100217.25
2022-12-06T11:47:22.639Z,100221.72
2022-12-06T11:49:52.424Z,100216.59
2022-12-06T11:52:25.946Z,100215.75
2022-12-06T11:54:58.757Z,100208.22
2022-12-06T11:57:30.777Z,100198.50
2022-12-06T12:00:14.364Z,100198.28
2022-12-06T12:02:45.055Z,100194.47
2022-12-06T12:05:19.540Z,100193.47
2022-12-06T12:07:51.610Z,100192.25
2022-12-06T12:10:28.839Z,100187.13
2022-12-06T12:13:14.442Z,100180.22
2022-12-06T12:15:51.100Z,100186.94
2022-12-06T12:18:26.635Z,100193.25
2022-12-06T12:20:55.869Z,100182.41
2022-12-06T12:23:26.543Z,100181.22
2022-12-06T12:26:02.766Z,100189.03
2022-12-06T12:28:32.096Z,100184.63
2022-12-06T12:31:00.934Z,100173.31
2022-12-06T12:33:30.389Z,100167.25
2022-12-06T12:36:15.787Z,100165.53
2022-12-06T12:38:49.987Z,100171.13
2022-12-06T12:41:27.219Z,100173.63
2022-12-06T12:44:35.404Z,100173.16
2022-12-06T12:46:53.396Z,100168.22
2022-12-06T12:49:29.386Z,100168.13
2022-12-06T12:51:57.917Z,100169.41
2022-12-06T12:54:30.035Z,100163.94
2022-12-06T12:57:03.317Z,100171.06
2022-12-06T12:59:38.331Z,100164.59
2022-12-06T13:02:16.582Z,100169.00
2022-12-06T13:04:48.912Z,100171.72
2022-12-06T13:07:28.452Z,100170.38
2022-12-06T13:10:01.010Z,100173.94
2022-12-06T13:12:34.078Z,100172.00
2022-12-06T13:15:05.901Z,100172.25
2022-12-06T13:17:36.872Z,100168.28
2022-12-06T13:20:20.391Z,100165.97
2022-12-06T13:22:53.745Z,100169.56
2022-12-06T13:25:21.271Z,100164.81
2022-12-06T13:27:55.237Z,100164.53
2022-12-06T13:30:25.951Z,100162.47
2022-12-06T13:32:56.102Z,100160.59
2022-12-06T13:35:29.299Z,100158.44
2022-12-06T13:37:58.566Z,100153.28
2022-12-06T13:40:53.733Z,100161.69
2022-12-06T13:43:49.802Z,100157.78
2022-12-06T13:46:24.017Z,100154.84
2022-12-06T13:48:53.107Z,100160.59
2022-12-06T13:51:44.909Z,100161.16
2022-12-06T13:54:36.178Z,100158.78
2022-12-06T13:57:22.395Z,100158.88
2022-12-06T13:59:50.223Z,100162.19
2022-12-06T14:02:50.930Z,100166.69
2022-12-06T14:08:32.850Z,100166.44
2022-12-06T14:11:22.952Z,100159.66
2022-12-06T14:14:01.504Z,100158.47
2022-12-06T14:16:35.131Z,100156.13
2022-12-06T14:19:05.302Z,100162.44
2022-12-06T14:21:39.120Z,100167.53
2022-12-06T14:24:08.132Z,100163.81
2022-12-06T14:26:36.383Z,100164.09
2022-12-06T14:29:03.975Z,100162.38
2022-12-06T14:31:39.311Z,100157.63
2022-12-06T14:34:06.871Z,100166.91
2022-12-06T14:36:40.512Z,100162.94
2022-12-06T14:39:17.164Z,100157.00
2022-12-06T14:42:10.120Z,100158.38
2022-12-06T14:44:37.725Z,100159.66
2022-12-06T14:47:05.770Z,100168.56
2022-12-06T14:49:52.525Z,100162.03
2022-12-06T14:52:23.244Z,100167.41
2022-12-06T14:54:52.991Z,100159.06
2022-12-06T14:57:25.919Z,100165.31
2022-12-06T15:00:25.831Z,100164.75
2022-12-06T15:03:01.605Z,100161.13
2022-12-06T15:05:35.136Z,100163.06
2022-12-06T15:08:30.176Z,100170.75
2022-12-06T15:11:00.890Z,100170.44
2022-12-06T15:13:29.443Z,100166.38
2022-12-06T15:16:04.139Z,100167.81
2022-12-06T15:18:34.199Z,100167.97
2022-12-06T15:21:01.848Z,100168.19
2022-12-06T15:23:32.106Z,100166.59
2022-12-06T15:26:00.953Z,100179.13
2022-12-06T15:28:28.449Z,100170.31
2022-12-06T15:30:55.970Z,100167.53
2022-12-06T15:33:27.208Z,100163.41
2022-12-06T15:35:54.977Z,100157.97
2022-12-06T15:38:22.495Z,100158.28
2022-12-06T15:40:51.760Z,100156.75
2022-12-06T15:43:28.724Z,100158.56
2022-12-06T15:45:57.047Z,100159.84
2022-12-06T15:48:24.766Z,100162.50
2022-12-06T15:50:52.416Z,100166.78
2022-12-06T15:53:23.173Z,100168.31
2022-12-06T15:55:51.036Z,100159.66
2022-12-06T15:58:18.505Z,100163.59
2022-12-06T16:00:47.667Z,100160.78
2022-12-06T16:03:15.376Z,100169.81
2022-12-06T16:05:42.969Z,100162.31
2022-12-06T16:08:10.501Z,100165.56
2022-12-06T16:11:10.325Z,100174.38
2022-12-06T16:13:25.888Z,100166.56
2022-12-06T16:15:54.798Z,100159.06
2022-12-06T16:18:22.581Z,100158.91
2022-12-06T16:20:52.987Z,100166.69
2022-12-06T16:24:11.489Z,100159.06
2022-12-06T16:26:29.421Z,100159.31
2022-12-06T16:28:57.456Z,100159.72
2022-12-06T16:31:26.522Z,100164.75
2022-12-06T16:33:54.903Z,100163.94
2022-12-06T16:36:24.757Z,100171.66
2022-12-06T16:38:54.851Z,100157.78
2022-12-06T16:41:25.927Z,100156.34
2022-12-06T16:43:53.651Z,100157.81
2022-12-06T16:46:29.299Z,100157.91
2022-12-06T16:49:15.787Z,100151.31
2022-12-06T16:51:46.824Z,100154.81
2022-12-06T16:54:14.359Z,100153.50
2022-12-06T16:56:41.964Z,100154.75
2022-12-06T16:59:13.908Z,100157.41
2022-12-06T17:01:48.052Z,100163.69
2022-12-06T17:04:15.547Z,100152.81
2022-12-06T17:06:43.067Z,100148.09
2022-12-06T17:09:11.817Z,100148.84
2022-12-06T17:11:59.012Z,100147.38
2022-12-06T17:14:27.034Z,100144.59
2022-12-06T17:16:55.747Z,100144.84
2022-12-06T17:19:28.417Z,100154.56
2022-12-06T17:21:56.737Z,100148.72
2022-12-06T17:24:26.675Z,100151.03
2022-12-06T17:26:55.177Z,100152.00
2022-12-06T17:29:24.217Z,100146.50
2022-12-06T17:31:52.303Z,100157.50
2022-12-06T17:34:21.899Z,100155.97
2022-12-06T17:36:50.483Z,100165.53
2022-12-06T17:39:19.984Z,100161.56
2022-12-06T17:42:05.387Z,100157.81
2022-12-06T17:44:33.947Z,100158.13
2022-12-06T17:47:02.086Z,100161.56
2022-12-06T17:49:31.294Z,100152.00
2022-12-06T17:51:58.950Z,100157.25
2022-12-06T17:54:26.459Z,100160.91
2022-12-06T17:56:56.160Z,100153.50
2022-12-06T17:59:25.740Z,100152.69
2022-12-06T18:02:14.574Z,100160.16
2022-12-06T18:04:44.380Z,100155.66
2022-12-06T18:07:12.023Z,100155.47
2022-12-06T18:09:39.740Z,100161.84
2022-12-06T18:12:09.056Z,100154.25
2022-12-06T18:14:36.711Z,100152.81
2022-12-06T18:17:04.989Z,100159.97
2022-12-06T18:19:33.260Z,100157.06
2022-12-06T18:22:02.370Z,100162.59
2022-12-06T18:24:35.199Z,100162.56
2022-12-06T18:27:03.452Z,100165.31
2022-12-06T18:29:30.940Z,100159.06
2022-12-06T18:31:58.645Z,100162.50
2022-12-06T18:34:26.173Z,100161.72
2022-12-06T18:36:53.685Z,100167.00
2022-12-06T18:39:24.669Z,100170.94
2022-12-06T18:41:53.567Z,100162.72
2022-12-06T18:44:21.342Z,100164.31
2022-12-06T18:46:48.898Z,100165.94
2022-12-06T18:49:16.501Z,100164.06
2022-12-06T18:51:43.996Z,100170.31
2022-12-06T18:54:13.612Z,100166.44
2022-12-06T18:56:43.159Z,100163.50
2022-12-06T18:59:12.516Z,100177.66
2022-12-06T19:01:41.774Z,100172.31
2022-12-06T19:04:13.096Z,100174.50
2022-12-06T19:06:40.721Z,100168.25
2022-12-06T19:09:13.638Z,100161.50
2022-12-06T19:11:45.590Z,100169.47
2022-12-06T19:14:13.934Z,100172.69
2022-12-06T19:16:43.283Z,100170.69
2022-12-06T19:19:16.230Z,100168.22
2022-12-06T19:21:45.384Z,100167.59
2022-12-06T19:24:15.709Z,100172.31
2022-12-06T19:26:44.936Z,100169.09
2022-12-06T19:29:13.083Z,100172.16
2022-12-06T19:31:40.583Z,100164.78
2022-12-06T19:34:13.963Z,100178.91
2022-12-06T19:36:41.491Z,100179.38
2022-12-06T19:39:08.942Z,100173.97
2022-12-06T19:41:57.119Z,100173.19
2022-12-06T19:44:25.398Z,100172.03
2022-12-06T19:46:53.095Z,100179.47
2022-12-06T19:49:23.875Z,100174.41
2022-12-06T19:51:52.204Z,100172.38
2022-12-06T19:54:22.150Z,100168.72
2022-12-06T19:56:50.285Z,100171.28
2022-12-06T19:59:17.931Z,100175.16
2022-12-06T20:01:48.288Z,100170.53
2022-12-06T20:04:17.457Z,100172.09
2022-12-06T20:06:45.652Z,100166.97
2022-12-06T20:09:13.839Z,100168.69
2022-12-06T20:11:59.644Z,100171.66
2022-12-06T20:14:27.985Z,100178.47
2022-12-06T20:16:57.146Z,100172.69
2022-12-06T20:19:25.445Z,100176.66
2022-12-06T20:21:53.119Z,100172.44
2022-12-06T20:24:22.719Z,100170.13
2022-12-06T20:26:53.143Z,100164.97
2022-12-06T20:29:21.402Z,100167.25
2022-12-06T20:31:51.154Z,100165.44
2022-12-06T20:34:20.340Z,100160.44
2022-12-06T20:36:48.335Z,100152.69
2022-12-06T20:39:19.140Z,100152.00
2022-12-06T20:41:46.690Z,100154.00
2022-12-06T20:44:14.227Z,100148.22
2022-12-06T20:46:41.830Z,100155.44
2022-12-06T20:49:09.563Z,100152.53
2022-12-06T20:51:38.504Z,100160.63
2022-12-06T20:54:07.826Z,100152.25
2022-12-06T20:56:37.122Z,100152.91
2022-12-06T20:59:06.590Z,100159.75
2022-12-06T21:01:38.581Z,100162.34
2022-12-06T21:04:06.691Z,100154.25
2022-12-06T21:06:34.020Z,100163.31
2022-12-06T21:09:06.827Z,100158.25
2022-12-06T21:11:34.376Z,100162.13
2022-12-06T21:14:03.320Z,100160.25
2022-12-06T21:16:32.592Z,100155.03
2022-12-06T21:19:02.371Z,100163.09
2022-12-06T21:21:32.244Z,100159.53
2022-12-06T21:24:00.576Z,100154.84
2022-12-06T21:26:30.399Z,100157.88
2022-12-06T21:28:58.372Z,100162.59
2022-12-06T21:31:26.903Z,100165.94
2022-12-06T21:33:54.917Z,100159.84
2022-12-06T21:36:22.419Z,100160.56
2022-12-06T21:38:50.081Z,100162.31
2022-12-06T21:41:17.620Z,100159.47
2022-12-06T21:43:46.455Z,100163.56
2022-12-06T21:46:16.249Z,100166.16
2022-12-06T21:48:45.011Z,100161.56
2022-12-06T21:51:14.332Z,100170.00
2022-12-06T21:53:42.238Z,100161.16
2022-12-06T21:56:11.391Z,100163.81
2022-12-06T21:58:38.894Z,100153.63
2022-12-06T22:01:09.756Z,100164.22
2022-12-06T22:03:38.099Z,100164.22
2022-12-06T22:06:06.674Z,100155.34
2022-12-06T22:08:34.221Z,100159.72
2022-12-06T22:11:02.009Z,100161.44
2022-12-06T22:13:29.475Z,100158.13
2022-12-06T22:15:56.999Z,100165.00
2022-12-06T22:18:25.967Z,100151.50
2022-12-06T22:21:00.839Z,100156.22
2022-12-06T22:23:28.602Z,100148.84
2022-12-06T22:25:56.080Z,100147.59
2022-12-06T22:28:23.925Z,100156.75
2022-12-06T22:30:51.441Z,100138.91
2022-12-06T22:33:20.168Z,100146.47
2022-12-06T22:35:48.982Z,100152.56
2022-12-06T22:38:16.423Z,100148.06
2022-12-06T22:40:43.912Z,100154.09
2022-12-06T22:43:11.371Z,100151.81
2022-12-06T22:45:38.844Z,100148.91
2022-12-06T22:48:06.691Z,100153.63
2022-12-06T22:50:34.152Z,100156.22
2022-12-06T22:53:03.074Z,100151.50
2022-12-06T22:55:30.559Z,100145.94
2022-12-06T22:57:58.068Z,100139.66
2022-12-06T23:00:26.052Z,100147.00
2022-12-06T23:02:53.420Z,100141.22
2022-12-06T23:05:20.906Z,100145.53
2022-12-06T23:07:48.845Z,100134.00
2022-12-06T23:10:17.861Z,100133.66
2022-12-06T23:12:45.371Z,100140.16
2022-12-06T23:15:12.814Z,100142.59
2022-12-06T23:17:40.288Z,100143.81
2022-12-06T23:20:09.071Z,100145.84
2022-12-06T23:22:44.201Z,100142.16
2022-12-06T23:25:11.721Z,100143.13
2022-12-06T23:27:40.538Z,100140.16
2022-12-06T23:30:09.456Z,100137.09
2022-12-06T23:32:36.938Z,100145.00
2022-12-06T23:35:05.032Z,100148.44
2022-12-06T23:37:35.918Z,100136.19
2022-12-06T23:40:03.754Z,100133.53
2022-12-06T23:42:31.343Z,100135.13
2022-12-06T23:45:00.179Z,100128.63
2022-12-06T23:47:27.664Z,100137.19
2022-12-06T23:49:55.161Z,100135.84
2022-12-06T23:52:22.664Z,100140.44
2022-12-06T23:54:50.147Z,100136.56
2022-12-06T23:57:25.540Z,100142.41
2022-12-06T23:59:53.010Z,100131.72
